createdAt,value
2022-11-30T00:01:15.036Z,39.13
2022-11-30T00:03:42.111Z,39.33
2022-11-30T00:06:11.378Z,37.50
2022-11-30T00:08:38.441Z,36.70
2022-11-30T00:11:11.730Z,36.08
2022-11-30T00:13:38.694Z,34.95
2022-11-30T00:16:06.180Z,34.13
2022-11-30T00:18:33.692Z,34.65
2022-11-30T00:21:05.154Z,33.70
2022-11-30T00:23:33.523Z,33.58
2022-11-30T00:26:02.553Z,31.75
2022-11-30T00:28:31.114Z,34.20
2022-11-30T00:30:59.294Z,32.28
2022-11-30T00:33:26.277Z,30.75
2022-11-30T00:36:00.811Z,31.95
2022-11-30T00:38:27.795Z,30.67
2022-11-30T00:40:54.815Z,28.83
2022-11-30T00:43:21.699Z,30.73
2022-11-30T00:45:48.673Z,28.63
2022-11-30T00:48:15.576Z,28.88
2022-11-30T00:50:42.773Z,29.00
2022-11-30T00:53:09.641Z,29.75
2022-11-30T00:55:36.536Z,28.48
2022-11-30T00:58:03.444Z,27.88
2022-11-30T01:00:30.319Z,27.55
2022-11-30T01:02:59.413Z,25.95
2022-11-30T01:05:26.651Z,27.27
2022-11-30T01:07:53.562Z,27.25
2022-11-30T01:10:20.874Z,26.27
2022-11-30T01:12:47.730Z,25.52
2022-11-30T01:15:14.625Z,25.55
2022-11-30T01:17:41.521Z,25.60
2022-11-30T01:20:08.847Z,26.20
2022-11-30T01:22:35.845Z,25.45
2022-11-30T01:25:03.191Z,25.42
2022-11-30T01:27:30.073Z,24.63
2022-11-30T01:29:57.024Z,24.08
2022-11-30T01:32:23.922Z,25.52
2022-11-30T01:34:50.825Z,24.33
2022-11-30T01:37:17.661Z,23.50
2022-11-30T01:39:44.602Z,22.63
2022-11-30T01:42:19.810Z,22.33
2022-11-30T01:45:07.415Z,22.85
2022-11-30T01:47:43.334Z,21.60
2022-11-30T01:50:15.511Z,20.80
2022-11-30T01:52:48.547Z,21.08
2022-11-30T01:55:20.654Z,20.50
2022-11-30T01:58:02.223Z,22.17
2022-11-30T02:00:29.261Z,20.48
2022-11-30T02:03:05.323Z,21.75
2022-11-30T02:05:35.134Z,20.58
2022-11-30T02:08:02.463Z,20.23
2022-11-30T02:10:32.344Z,20.15
2022-11-30T02:13:17.799Z,19.85
2022-11-30T02:16:06.157Z,19.75
2022-11-30T02:18:54.289Z,18.45
2022-11-30T02:21:36.093Z,19.77
2022-11-30T02:24:18.043Z,19.17
2022-11-30T02:27:03.533Z,18.88
2022-11-30T02:29:42.654Z,19.88
2022-11-30T02:32:14.874Z,19.05
2022-11-30T02:34:43.115Z,18.42
2022-11-30T02:37:11.645Z,17.48
2022-11-30T02:39:38.551Z,17.90
2022-11-30T02:42:10.994Z,18.80
2022-11-30T02:44:38.091Z,17.42
2022-11-30T02:47:09.550Z,17.65
2022-11-30T02:49:49.762Z,16.50
2022-11-30T02:52:19.383Z,16.50
2022-11-30T02:54:46.645Z,17.05
2022-11-30T02:57:13.669Z,17.08
2022-11-30T02:59:41.157Z,16.65
2022-11-30T03:02:08.291Z,17.27
2022-11-30T03:04:35.216Z,16.98
2022-11-30T03:07:02.109Z,16.95
2022-11-30T03:09:28.998Z,16.10
2022-11-30T03:11:55.875Z,15.98
2022-11-30T03:14:22.759Z,15.38
2022-11-30T03:16:49.629Z,15.95
2022-11-30T03:19:16.533Z,15.05
2022-11-30T03:21:43.359Z,14.95
2022-11-30T03:24:10.259Z,14.38
2022-11-30T03:29:04.325Z,14.38
2022-11-30T03:31:31.335Z,14.75
2022-11-30T03:33:58.217Z,14.35
2022-11-30T03:36:25.154Z,14.25
2022-11-30T03:38:52.117Z,14.43
2022-11-30T03:41:19.277Z,14.20
2022-11-30T03:43:47.014Z,14.18
2022-11-30T03:46:14.544Z,13.95
2022-11-30T03:48:41.669Z,14.02
2022-11-30T03:51:09.133Z,14.10
2022-11-30T03:53:36.168Z,13.48
2022-11-30T03:56:05.333Z,13.70
2022-11-30T03:58:32.223Z,13.13
2022-11-30T04:01:08.134Z,12.57
2022-11-30T04:03:35.567Z,12.90
2022-11-30T04:06:02.666Z,12.05
2022-11-30T04:08:30.337Z,12.63
2022-11-30T04:10:59.316Z,12.25
2022-11-30T04:13:27.253Z,12.65
2022-11-30T04:15:55.167Z,11.88
2022-11-30T04:18:24.036Z,12.35
2022-11-30T04:20:52.449Z,11.87
2022-11-30T04:23:19.491Z,11.95
2022-11-30T04:25:48.083Z,11.50
2022-11-30T04:28:15.954Z,12.05
2022-11-30T04:30:43.114Z,11.27
2022-11-30T04:33:10.276Z,11.27
2022-11-30T04:38:19.803Z,10.73
2022-11-30T04:40:46.759Z,11.40
2022-11-30T04:43:13.707Z,11.73
2022-11-30T04:45:40.859Z,11.60
2022-11-30T04:48:08.071Z,11.43
2022-11-30T04:50:35.154Z,11.48
2022-11-30T04:53:02.157Z,11.48
2022-11-30T04:55:29.416Z,10.95
2022-11-30T04:57:56.419Z,10.52
2022-11-30T05:02:53.178Z,10.98
2022-11-30T05:05:20.454Z,10.43
2022-11-30T05:08:05.666Z,9.93
2022-11-30T05:10:33.907Z,10.50
2022-11-30T05:13:01.134Z,10.23
2022-11-30T05:15:28.057Z,9.68
2022-11-30T05:20:28.309Z,10.35
2022-11-30T05:22:55.159Z,10.25
2022-11-30T05:25:22.088Z,9.75
2022-11-30T05:27:48.938Z,9.20
2022-11-30T05:30:16.037Z,9.75
2022-11-30T05:32:42.966Z,8.90
2022-11-30T05:35:10.076Z,9.43
2022-11-30T05:37:37.595Z,9.57
2022-11-30T05:40:05.051Z,9.25
2022-11-30T05:42:31.903Z,9.57
2022-11-30T05:44:58.780Z,8.88
2022-11-30T05:47:25.654Z,9.23
2022-11-30T05:49:52.545Z,9.20
2022-11-30T05:52:19.444Z,9.05
2022-11-30T05:54:46.679Z,8.73
2022-11-30T05:57:13.821Z,9.27
2022-11-30T05:59:40.790Z,8.98
2022-11-30T06:02:07.780Z,8.60
2022-11-30T06:04:35.142Z,8.95
2022-11-30T06:07:02.121Z,8.80
2022-11-30T06:09:29.358Z,8.48
2022-11-30T06:11:56.319Z,7.72
2022-11-30T06:14:23.201Z,8.18
2022-11-30T06:16:50.164Z,8.75
2022-11-30T06:19:17.143Z,8.40
2022-11-30T06:21:44.055Z,7.95
2022-11-30T06:24:11.051Z,8.52
2022-11-30T06:26:37.996Z,8.15
2022-11-30T06:29:04.877Z,8.45
2022-11-30T06:31:32.118Z,8.25
2022-11-30T06:33:59.450Z,7.75
2022-11-30T06:36:28.948Z,28.08
2022-11-30T06:39:01.117Z,46.05
2022-11-30T06:41:28.074Z,46.55
2022-11-30T06:43:54.957Z,46.28
2022-11-30T06:46:22.309Z,44.22
2022-11-30T06:48:50.866Z,39.35
2022-11-30T06:51:18.151Z,31.20
2022-11-30T06:53:45.640Z,30.95
2022-11-30T06:56:13.035Z,28.90
2022-11-30T06:58:40.483Z,40.47
2022-11-30T07:01:09.986Z,58.92
2022-11-30T07:03:37.276Z,49.85
2022-11-30T07:06:11.834Z,49.85
2022-11-30T07:08:39.500Z,44.35
2022-11-30T07:11:07.342Z,42.13
2022-11-30T07:13:34.460Z,38.50
2022-11-30T07:16:05.795Z,36.35
2022-11-30T07:18:33.308Z,33.78
2022-11-30T07:21:01.163Z,31.48
2022-11-30T07:23:52.357Z,28.10
2022-11-30T07:26:22.247Z,28.45
2022-11-30T07:28:54.832Z,25.20
2022-11-30T07:31:30.152Z,26.08
2022-11-30T07:33:58.447Z,24.58
2022-11-30T07:36:26.283Z,22.80
2022-11-30T07:38:53.193Z,21.52
2022-11-30T07:41:20.117Z,22.35
2022-11-30T07:43:47.025Z,21.83
2022-11-30T07:46:15.305Z,19.80
2022-11-30T07:48:43.054Z,21.05
2022-11-30T07:51:19.072Z,19.67
2022-11-30T07:53:46.052Z,18.13
2022-11-30T07:56:16.007Z,18.50
2022-11-30T07:58:43.404Z,18.02
2022-11-30T08:01:19.008Z,17.88
2022-11-30T08:03:46.263Z,17.33
2022-11-30T08:06:15.694Z,16.73
2022-11-30T08:08:44.568Z,16.83
2022-11-30T08:11:13.594Z,17.23
2022-11-30T08:13:40.591Z,15.63
2022-11-30T08:16:10.615Z,15.52
2022-11-30T08:18:37.498Z,16.00
2022-11-30T08:21:06.011Z,14.77
2022-11-30T08:23:36.189Z,14.88
2022-11-30T08:26:08.603Z,14.75
2022-11-30T08:28:38.252Z,15.00
2022-11-30T08:31:10.602Z,14.43
2022-11-30T08:33:38.078Z,13.65
2022-11-30T08:36:11.253Z,14.13
2022-11-30T08:38:38.818Z,14.18
2022-11-30T08:41:06.749Z,13.43
2022-11-30T08:43:34.075Z,14.18
2022-11-30T08:46:11.382Z,12.05
2022-11-30T08:48:49.823Z,12.52
2022-11-30T08:51:18.251Z,12.98
2022-11-30T08:53:45.944Z,12.25
2022-11-30T08:56:18.393Z,13.00
2022-11-30T08:58:46.096Z,12.55
2022-11-30T09:01:27.105Z,12.55
2022-11-30T09:03:59.891Z,13.52
2022-11-30T09:06:29.849Z,12.00
2022-11-30T09:08:58.666Z,12.18
2022-11-30T09:11:30.980Z,12.37
2022-11-30T09:14:04.102Z,11.88
2022-11-30T09:16:31.680Z,11.52
2022-11-30T09:18:58.588Z,11.75
2022-11-30T09:21:26.122Z,11.90
2022-11-30T09:23:53.499Z,11.82
2022-11-30T09:26:23.790Z,11.55
2022-11-30T09:28:50.935Z,11.80
2022-11-30T09:31:23.389Z,11.02
2022-11-30T09:33:50.553Z,10.48
2022-11-30T09:36:19.861Z,10.55
2022-11-30T09:38:47.629Z,11.45
2022-11-30T09:41:41.831Z,11.05
2022-11-30T09:44:23.772Z,9.98
2022-11-30T09:47:04.944Z,10.40
2022-11-30T09:49:38.167Z,10.93
2022-11-30T09:52:09.081Z,10.68
2022-11-30T09:54:44.347Z,9.82
2022-11-30T09:57:25.337Z,9.90
2022-11-30T09:59:56.631Z,9.90
2022-11-30T10:02:35.032Z,9.63
2022-11-30T10:05:02.432Z,9.95
2022-11-30T10:08:06.470Z,10.77
2022-11-30T10:10:41.355Z,10.05
2022-11-30T10:13:30.974Z,9.57
2022-11-30T10:16:06.020Z,9.68
2022-11-30T10:19:06.248Z,9.60
2022-11-30T10:22:01.256Z,9.98
2022-11-30T10:24:54.709Z,9.98
2022-11-30T10:27:44.391Z,9.55
2022-11-30T10:35:31.479Z,8.40
2022-11-30T10:38:00.608Z,8.32
2022-11-30T10:40:40.947Z,9.00
2022-11-30T10:43:16.286Z,8.10
2022-11-30T10:45:50.369Z,8.90
2022-11-30T10:48:40.953Z,8.15
2022-11-30T10:51:08.388Z,8.25
2022-11-30T10:53:35.449Z,8.40
2022-11-30T10:56:08.839Z,7.90
2022-11-30T10:58:50.388Z,7.82
2022-11-30T11:01:35.490Z,7.82
2022-11-30T11:04:16.740Z,8.10
2022-11-30T11:06:49.346Z,7.32
2022-11-30T11:09:31.406Z,7.70
2022-11-30T11:12:05.951Z,7.30
2022-11-30T11:14:37.900Z,7.13
2022-11-30T11:17:21.868Z,7.32
2022-11-30T11:19:50.165Z,7.45
2022-11-30T11:22:21.449Z,7.60
2022-11-30T11:24:49.972Z,7.05
2022-11-30T11:27:37.553Z,6.88
2022-11-30T11:30:28.254Z,7.32
2022-11-30T11:33:19.017Z,6.78
2022-11-30T11:36:13.016Z,6.97
2022-11-30T11:38:48.367Z,6.90
2022-11-30T11:41:35.730Z,6.63
2022-11-30T11:44:23.211Z,6.97
2022-11-30T11:47:06.181Z,7.05
2022-11-30T11:49:37.959Z,6.80
2022-11-30T11:52:20.425Z,7.32
2022-11-30T11:54:51.093Z,6.57
2022-11-30T11:57:21.123Z,6.43
2022-11-30T12:00:00.137Z,7.15
2022-11-30T12:02:32.584Z,6.80
2022-11-30T12:05:14.711Z,6.97
2022-11-30T12:08:07.996Z,6.20
2022-11-30T12:10:59.295Z,6.72
2022-11-30T12:13:33.216Z,6.60
2022-11-30T12:16:12.668Z,6.88
2022-11-30T12:19:07.697Z,6.60
2022-11-30T12:21:46.635Z,6.40
2022-11-30T12:24:41.985Z,6.97
2022-11-30T12:27:30.795Z,6.82
2022-11-30T12:30:10.106Z,6.95
2022-11-30T12:32:55.078Z,6.88
2022-11-30T12:35:37.435Z,7.00
2022-11-30T12:38:32.307Z,6.40
2022-11-30T12:41:17.297Z,6.82
2022-11-30T12:44:08.640Z,6.07
2022-11-30T12:46:56.680Z,7.00
2022-11-30T12:49:49.825Z,7.35
2022-11-30T12:52:27.433Z,6.55
2022-11-30T12:55:22.534Z,6.25
2022-11-30T12:57:55.254Z,6.65
2022-11-30T13:00:24.191Z,7.03
2022-11-30T13:03:20.343Z,6.15
2022-11-30T13:06:00.173Z,6.60
2022-11-30T13:08:30.147Z,6.70
2022-11-30T13:11:00.492Z,6.75
2022-11-30T13:13:30.489Z,6.95
2022-11-30T13:15:59.108Z,6.95
2022-11-30T13:18:27.314Z,7.18
2022-11-30T13:21:06.191Z,7.28
2022-11-30T13:23:58.517Z,7.10
2022-11-30T13:26:37.447Z,7.65
2022-11-30T13:29:13.342Z,7.30
2022-11-30T13:31:44.343Z,6.50
2022-11-30T13:34:37.322Z,6.95
2022-11-30T13:37:08.298Z,6.93
2022-11-30T13:39:48.795Z,6.50
2022-11-30T13:42:47.441Z,6.63
2022-11-30T13:45:33.408Z,6.72
2022-11-30T13:48:18.000Z,6.80
2022-11-30T13:50:48.073Z,6.35
2022-11-30T13:53:26.190Z,5.95
2022-11-30T13:56:00.195Z,6.57
2022-11-30T13:58:27.911Z,6.90
2022-11-30T14:01:22.542Z,6.82
2022-11-30T14:04:14.312Z,6.40
2022-11-30T14:06:53.246Z,7.28
2022-11-30T14:09:41.979Z,7.07
2022-11-30T14:12:31.121Z,6.43
2022-11-30T14:14:58.811Z,6.40
2022-11-30T14:17:34.328Z,7.22
2022-11-30T14:20:18.989Z,6.80
2022-11-30T14:22:46.036Z,6.57
2022-11-30T14:25:15.512Z,6.57
2022-11-30T14:27:43.177Z,6.30
2022-11-30T14:30:19.506Z,6.63
2022-11-30T14:32:56.570Z,6.70
2022-11-30T14:35:23.584Z,6.53
2022-11-30T14:37:55.387Z,6.63
2022-11-30T14:40:24.558Z,6.10
2022-11-30T14:42:57.226Z,6.50
2022-11-30T14:45:27.790Z,6.57
2022-11-30T14:48:06.261Z,6.38
2022-11-30T14:50:33.504Z,6.45
2022-11-30T14:53:29.803Z,6.78
2022-11-30T14:56:02.431Z,6.20
2022-11-30T14:58:38.227Z,6.40
2022-11-30T15:01:21.543Z,6.50
2022-11-30T15:03:49.842Z,6.22
2022-11-30T15:06:19.022Z,6.75
2022-11-30T15:08:50.083Z,6.57
2022-11-30T15:11:17.825Z,6.38
2022-11-30T15:13:47.790Z,6.32
2022-11-30T15:16:25.103Z,5.93
2022-11-30T15:18:53.326Z,6.53
2022-11-30T15:21:28.928Z,6.70
2022-11-30T15:23:57.519Z,6.80
2022-11-30T15:26:38.593Z,6.78
2022-11-30T15:29:20.846Z,6.63
2022-11-30T15:31:50.405Z,6.35
2022-11-30T15:37:13.857Z,7.32
2022-11-30T15:39:44.755Z,6.85
2022-11-30T15:44:53.289Z,6.57
2022-11-30T15:47:37.459Z,6.95
2022-11-30T15:50:28.429Z,6.63
2022-11-30T15:53:00.765Z,6.90
2022-11-30T15:55:44.331Z,7.35
2022-11-30T15:58:32.289Z,8.23
2022-11-30T16:01:09.149Z,7.90
2022-11-30T16:03:56.246Z,15.10
2022-11-30T16:06:32.151Z,9.10
2022-11-30T16:09:21.997Z,7.32
2022-11-30T16:11:53.757Z,8.15
2022-11-30T16:14:20.637Z,7.57
2022-11-30T16:16:48.097Z,7.10
2022-11-30T16:19:15.056Z,7.00
2022-11-30T16:21:42.048Z,6.75
2022-11-30T16:24:15.277Z,6.35
2022-11-30T16:26:51.061Z,6.72
2022-11-30T16:29:18.936Z,8.75
2022-11-30T16:31:45.879Z,7.00
2022-11-30T16:34:12.823Z,12.77
2022-11-30T16:36:39.669Z,6.82
2022-11-30T16:39:06.842Z,7.72
2022-11-30T16:41:35.809Z,7.55
2022-11-30T16:44:02.746Z,6.93
2022-11-30T16:46:31.400Z,7.75
2022-11-30T16:48:59.444Z,6.63
2022-11-30T16:51:28.755Z,7.35
2022-11-30T16:53:56.066Z,8.63
2022-11-30T16:56:23.155Z,6.78
2022-11-30T16:58:50.497Z,7.07
2022-11-30T17:01:39.868Z,7.00
2022-11-30T17:04:26.562Z,7.28
2022-11-30T17:06:58.710Z,7.03
2022-11-30T17:09:29.905Z,7.05
2022-11-30T17:11:56.796Z,6.50
2022-11-30T17:14:23.633Z,6.68
2022-11-30T17:16:50.580Z,7.30
2022-11-30T17:19:17.577Z,6.45
2022-11-30T17:21:44.927Z,7.10
2022-11-30T17:24:12.495Z,7.20
2022-11-30T17:26:39.420Z,6.88
2022-11-30T17:29:06.428Z,6.47
2022-11-30T17:31:33.443Z,7.15
2022-11-30T17:34:01.248Z,6.55
2022-11-30T17:36:29.464Z,6.32
2022-11-30T17:38:56.802Z,6.90
2022-11-30T17:41:23.946Z,6.53
2022-11-30T17:43:52.115Z,7.55
2022-11-30T17:46:19.283Z,6.93
2022-11-30T17:48:46.728Z,6.85
2022-11-30T17:51:13.814Z,6.05
2022-11-30T17:53:42.018Z,6.45
2022-11-30T17:56:10.928Z,6.65
2022-11-30T17:58:43.365Z,7.38
2022-11-30T18:01:22.947Z,6.25
2022-11-30T18:03:50.861Z,6.65
2022-11-30T18:06:18.124Z,7.00
2022-11-30T18:08:45.501Z,7.22
2022-11-30T18:11:15.613Z,7.10
2022-11-30T18:13:42.676Z,6.88
2022-11-30T18:16:12.765Z,7.25
2022-11-30T18:18:45.798Z,6.60
2022-11-30T18:21:15.865Z,7.00
2022-11-30T18:23:42.804Z,6.45
2022-11-30T18:26:13.035Z,6.57
2022-11-30T18:28:39.932Z,6.35
2022-11-30T18:31:07.179Z,6.78
2022-11-30T18:33:34.919Z,7.78
2022-11-30T18:36:02.931Z,6.47
2022-11-30T18:38:35.874Z,6.82
2022-11-30T18:41:05.362Z,7.30
2022-11-30T18:43:33.588Z,6.95
2022-11-30T18:46:09.075Z,6.93
2022-11-30T18:48:36.753Z,7.55
2022-11-30T18:51:14.888Z,8.05
2022-11-30T18:53:42.147Z,8.20
2022-11-30T18:56:17.504Z,8.20
2022-11-30T18:58:45.171Z,7.57
2022-11-30T19:01:18.516Z,8.15
2022-11-30T19:03:55.784Z,9.07
2022-11-30T19:06:24.822Z,8.63
2022-11-30T19:08:51.775Z,11.75
2022-11-30T19:11:18.753Z,10.30
2022-11-30T19:13:45.955Z,9.07
2022-11-30T19:16:15.506Z,9.07
2022-11-30T19:21:14.079Z,8.35
2022-11-30T19:23:41.088Z,8.50
2022-11-30T19:26:10.118Z,9.82
2022-11-30T19:28:38.317Z,9.05
2022-11-30T19:31:13.665Z,9.07
2022-11-30T19:33:41.978Z,8.60
2022-11-30T19:36:11.974Z,8.45
2022-11-30T19:38:38.864Z,9.30
2022-11-30T19:41:07.385Z,16.88
2022-11-30T19:43:34.530Z,91.53
2022-11-30T19:46:09.272Z,106.43
2022-11-30T19:48:36.552Z,89.88
2022-11-30T19:51:10.869Z,82.38
2022-11-30T19:53:40.965Z,80.28
2022-11-30T19:56:10.422Z,77.78
2022-11-30T19:58:37.374Z,72.13
2022-11-30T20:01:05.277Z,68.95
2022-11-30T20:03:35.900Z,67.70
2022-11-30T20:06:03.403Z,65.93
2022-11-30T20:08:30.682Z,60.78
2022-11-30T20:10:57.584Z,60.78
2022-11-30T20:13:24.496Z,55.78
2022-11-30T20:15:51.506Z,53.78
2022-11-30T20:18:18.376Z,53.78
2022-11-30T20:20:45.307Z,50.35
2022-11-30T20:23:12.174Z,48.85
2022-11-30T20:25:39.082Z,47.45
2022-11-30T20:28:09.664Z,47.28
2022-11-30T20:30:39.608Z,44.38
2022-11-30T20:33:06.483Z,42.88
2022-11-30T20:35:35.290Z,67.30
2022-11-30T20:38:02.184Z,102.80
2022-11-30T20:40:29.060Z,93.78
2022-11-30T20:42:55.969Z,89.45
2022-11-30T20:45:22.878Z,82.05
2022-11-30T20:47:49.698Z,79.28
2022-11-30T20:50:16.628Z,79.97
2022-11-30T20:52:43.503Z,74.43
2022-11-30T20:55:10.387Z,72.05
2022-11-30T20:57:37.225Z,68.15
2022-11-30T21:00:08.816Z,64.47
2022-11-30T21:02:38.531Z,62.97
2022-11-30T21:05:06.493Z,60.95
2022-11-30T21:07:33.519Z,59.58
2022-11-30T21:10:00.850Z,56.60
2022-11-30T21:12:27.813Z,56.15
2022-11-30T21:14:54.663Z,53.00
2022-11-30T21:17:21.720Z,53.05
2022-11-30T21:19:48.589Z,49.33
2022-11-30T21:22:15.475Z,48.78
2022-11-30T21:24:42.344Z,46.03
2022-11-30T21:27:09.221Z,44.42
2022-11-30T21:29:36.372Z,44.83
2022-11-30T21:32:03.311Z,42.05
2022-11-30T21:34:30.166Z,42.78
2022-11-30T21:36:57.122Z,41.05
2022-11-30T21:39:24.060Z,39.22
2022-11-30T21:41:50.926Z,37.95
2022-11-30T21:44:17.976Z,38.78
2022-11-30T21:46:46.553Z,36.60
2022-11-30T21:49:14.976Z,36.45
2022-11-30T21:51:42.807Z,34.08
2022-11-30T21:54:11.887Z,34.20
2022-11-30T21:56:40.138Z,33.40
2022-11-30T21:59:08.631Z,34.08
2022-11-30T22:01:41.692Z,31.65
2022-11-30T22:04:10.118Z,32.22
2022-11-30T22:06:38.467Z,32.55
2022-11-30T22:09:08.603Z,29.77
2022-11-30T22:11:40.182Z,29.50
2022-11-30T22:14:10.079Z,29.95
2022-11-30T22:16:37.097Z,27.33
2022-11-30T22:19:05.271Z,29.40
2022-11-30T22:21:32.753Z,28.45
2022-11-30T22:24:07.603Z,29.30
2022-11-30T22:26:37.298Z,28.30
2022-11-30T22:31:37.554Z,25.88
2022-11-30T22:34:05.119Z,26.85
2022-11-30T22:36:33.830Z,25.63
2022-11-30T22:39:04.206Z,26.27
2022-11-30T22:41:31.479Z,24.88
2022-11-30T22:43:59.219Z,26.02
2022-11-30T22:46:28.789Z,26.50
2022-11-30T22:48:56.135Z,24.75
2022-11-30T22:51:25.261Z,24.70
2022-11-30T22:53:52.962Z,24.00
2022-11-30T22:56:22.106Z,24.92
2022-11-30T22:58:50.615Z,23.58
2022-11-30T23:01:20.427Z,22.50
2022-11-30T23:06:17.120Z,22.35
2022-11-30T23:08:44.522Z,21.63
2022-11-30T23:11:13.775Z,22.42
2022-11-30T23:13:41.818Z,22.50
2022-11-30T23:16:10.177Z,22.50
2022-11-30T23:18:50.979Z,21.30
2022-11-30T23:21:30.089Z,21.50
2022-11-30T23:24:00.195Z,20.85
2022-11-30T23:28:56.075Z,20.92
2022-11-30T23:31:32.992Z,21.17
2022-11-30T23:34:04.451Z,20.42
2022-11-30T23:36:31.928Z,21.08
2022-11-30T23:39:06.583Z,20.17
2022-11-30T23:41:34.111Z,19.75
2022-11-30T23:44:01.259Z,18.58
2022-11-30T23:46:28.544Z,19.95
2022-11-30T23:48:55.912Z,19.70
2022-11-30T23:51:23.756Z,19.08
2022-11-30T23:53:50.924Z,19.45
2022-11-30T23:56:19.482Z,19.55
2022-11-30T23:58:46.550Z,18.63
